Terminal Aerodrome Forecast
Issued by NWS Upton, NY

Home | Current Version | Previous Version | Text Only | Print | Product List | Glossary On
Versions: 1 2 3 4 5 6 7 8 9 10 11 12 13 14 15 16 17 18 19 20 21 22 23 24 25 26 27 28 29 30 31 32
000
FTUS41 KOKX 270108 AAA
TAFEWR
TAF AMD
KEWR 270108Z 2701/2806 25006KT P6SM FEW007 BKN020
      TEMPO 2701/2702 4SM -SHRA BR
     FM270200 32008KT 3SM -SHRA BR SCT015 BKN025
     FM270300 34010KT 4SM -RA BR OVC015
     FM270500 35012G20KT 4SM -RA BR BKN015
     FM271400 34009KT 6SM -RA BKN015
     FM271700 33008KT P6SM SCT070 BKN100
     FM280300 35010KT P6SM SCT040 BKN120=

USA.gov is the U.S. government's official web portal to all federal, state and local government web resources and services.